sensor_id;sensor_type;location;lat;lon;timestamp;temperature;humidity
31735;DHT22;18313;48.518;9.124;2022-09-09T00:00:37;14.40;99.90
31735;DHT22;18313;48.518;9.124;2022-09-09T00:03:26;14.30;99.90
31735;DHT22;18313;48.518;9.124;2022-09-09T00:09:12;14.30;99.90
31735;DHT22;18313;48.518;9.124;2022-09-09T00:12:08;14.30;99.90
31735;DHT22;18313;48.518;9.124;2022-09-09T00:14:56;14.30;99.90
31735;DHT22;18313;48.518;9.124;2022-09-09T00:21:11;14.30;99.90
31735;DHT22;18313;48.518;9.124;2022-09-09T00:23:58;14.30;99.90
31735;DHT22;18313;48.518;9.124;2022-09-09T00:26:51;14.30;99.90
31735;DHT22;18313;48.518;9.124;2022-09-09T00:29:51;14.30;99.90
31735;DHT22;18313;48.518;9.124;2022-09-09T00:32:38;14.30;99.90
31735;DHT22;18313;48.518;9.124;2022-09-09T00:35:31;14.30;99.90
31735;DHT22;18313;48.518;9.124;2022-09-09T00:41:18;14.30;99.90
31735;DHT22;18313;48.518;9.124;2022-09-09T00:44:31;14.40;99.90
31735;DHT22;18313;48.518;9.124;2022-09-09T00:50:55;14.30;99.90
31735;DHT22;18313;48.518;9.124;2022-09-09T01:00:19;14.30;99.90
31735;DHT22;18313;48.518;9.124;2022-09-09T01:06:23;14.40;99.90
31735;DHT22;18313;48.518;9.124;2022-09-09T01:12:42;14.40;99.90
31735;DHT22;18313;48.518;9.124;2022-09-09T01:15:31;14.40;99.90
31735;DHT22;18313;48.518;9.124;2022-09-09T01:18:20;14.40;99.90
31735;DHT22;18313;48.518;9.124;2022-09-09T01:24:38;14.30;99.90
31735;DHT22;18313;48.518;9.124;2022-09-09T01:27:25;14.20;99.90
31735;DHT22;18313;48.518;9.124;2022-09-09T01:30:15;14.10;99.90
31735;DHT22;18313;48.518;9.124;2022-09-09T01:33:03;14.10;99.90
31735;DHT22;18313;48.518;9.124;2022-09-09T01:38:53;14.10;99.90
31735;DHT22;18313;48.518;9.124;2022-09-09T01:41:38;14.10;99.90
31735;DHT22;18313;48.518;9.124;2022-09-09T01:44:25;14.00;99.90
31735;DHT22;18313;48.518;9.124;2022-09-09T01:47:11;13.90;99.90
31735;DHT22;18313;48.518;9.124;2022-09-09T01:49:58;13.90;99.90
31735;DHT22;18313;48.518;9.124;2022-09-09T01:52:46;13.80;99.90
31735;DHT22;18313;48.518;9.124;2022-09-09T01:55:38;13.80;99.90
31735;DHT22;18313;48.518;9.124;2022-09-09T02:01:45;13.80;99.90
31735;DHT22;18313;48.518;9.124;2022-09-09T02:05:04;13.80;99.90
31735;DHT22;18313;48.518;9.124;2022-09-09T02:07:58;13.90;99.90
31735;DHT22;18313;48.518;9.124;2022-09-09T02:11:14;14.00;99.90
31735;DHT22;18313;48.518;9.124;2022-09-09T02:14:05;14.00;99.90
31735;DHT22;18313;48.518;9.124;2022-09-09T02:17:03;14.00;99.90
31735;DHT22;18313;48.518;9.124;2022-09-09T02:19:59;14.00;99.90
31735;DHT22;18313;48.518;9.124;2022-09-09T02:22:50;13.90;99.90
31735;DHT22;18313;48.518;9.124;2022-09-09T02:25:37;13.90;99.90
31735;DHT22;18313;48.518;9.124;2022-09-09T02:28:25;13.80;99.90
31735;DHT22;18313;48.518;9.124;2022-09-09T02:31:18;13.80;99.90
31735;DHT22;18313;48.518;9.124;2022-09-09T02:34:05;13.70;99.90
31735;DHT22;18313;48.518;9.124;2022-09-09T02:36:53;13.70;99.90
31735;DHT22;18313;48.518;9.124;2022-09-09T02:39:40;13.60;99.90
31735;DHT22;18313;48.518;9.124;2022-09-09T02:42:25;13.60;99.90
31735;DHT22;18313;48.518;9.124;2022-09-09T02:45:14;13.60;99.90
31735;DHT22;18313;48.518;9.124;2022-09-09T02:54:35;13.50;99.90
31735;DHT22;18313;48.518;9.124;2022-09-09T02:57:25;13.40;99.90
31735;DHT22;18313;48.518;9.124;2022-09-09T03:00:13;13.50;99.90
31735;DHT22;18313;48.518;9.124;2022-09-09T03:02:58;13.40;99.90
31735;DHT22;18313;48.518;9.124;2022-09-09T03:05:45;13.50;99.90
31735;DHT22;18313;48.518;9.124;2022-09-09T03:08:30;13.60;99.90
31735;DHT22;18313;48.518;9.124;2022-09-09T03:11:16;13.60;99.90
31735;DHT22;18313;48.518;9.124;2022-09-09T03:14:02;13.60;99.90
31735;DHT22;18313;48.518;9.124;2022-09-09T03:16:48;13.60;99.90
31735;DHT22;18313;48.518;9.124;2022-09-09T03:19:33;13.60;99.90
31735;DHT22;18313;48.518;9.124;2022-09-09T03:22:20;13.60;99.90
31735;DHT22;18313;48.518;9.124;2022-09-09T03:25:07;13.60;99.90
31735;DHT22;18313;48.518;9.124;2022-09-09T03:27:53;13.60;99.90
31735;DHT22;18313;48.518;9.124;2022-09-09T03:30:40;13.70;99.90
31735;DHT22;18313;48.518;9.124;2022-09-09T03:33:25;13.80;99.90
31735;DHT22;18313;48.518;9.124;2022-09-09T03:36:11;13.80;99.90
31735;DHT22;18313;48.518;9.124;2022-09-09T03:38:56;13.90;99.90
31735;DHT22;18313;48.518;9.124;2022-09-09T03:41:42;13.90;99.90
31735;DHT22;18313;48.518;9.124;2022-09-09T03:44:30;14.00;99.90
31735;DHT22;18313;48.518;9.124;2022-09-09T03:47:20;14.00;99.90
31735;DHT22;18313;48.518;9.124;2022-09-09T03:50:07;14.00;99.90
31735;DHT22;18313;48.518;9.124;2022-09-09T03:52:54;14.00;99.90
31735;DHT22;18313;48.518;9.124;2022-09-09T03:55:44;14.00;99.90
31735;DHT22;18313;48.518;9.124;2022-09-09T03:58:30;14.10;99.90
31735;DHT22;18313;48.518;9.124;2022-09-09T04:01:16;14.10;99.90
31735;DHT22;18313;48.518;9.124;2022-09-09T04:04:03;14.10;99.90
31735;DHT22;18313;48.518;9.124;2022-09-09T04:06:48;14.00;99.90
31735;DHT22;18313;48.518;9.124;2022-09-09T04:09:34;14.00;99.90
31735;DHT22;18313;48.518;9.124;2022-09-09T04:12:20;13.90;99.90
31735;DHT22;18313;48.518;9.124;2022-09-09T04:15:06;13.90;99.90
31735;DHT22;18313;48.518;9.124;2022-09-09T04:17:52;13.90;99.90
31735;DHT22;18313;48.518;9.124;2022-09-09T04:20:38;13.90;99.90
31735;DHT22;18313;48.518;9.124;2022-09-09T04:23:26;13.90;99.90
31735;DHT22;18313;48.518;9.124;2022-09-09T04:26:12;13.90;99.90
31735;DHT22;18313;48.518;9.124;2022-09-09T04:28:57;13.90;99.90
31735;DHT22;18313;48.518;9.124;2022-09-09T04:31:43;14.00;99.90
31735;DHT22;18313;48.518;9.124;2022-09-09T04:34:29;14.00;99.90
31735;DHT22;18313;48.518;9.124;2022-09-09T04:37:16;14.00;99.90
31735;DHT22;18313;48.518;9.124;2022-09-09T04:40:02;14.00;99.90
31735;DHT22;18313;48.518;9.124;2022-09-09T04:42:48;14.00;99.90
31735;DHT22;18313;48.518;9.124;2022-09-09T04:45:34;14.00;99.90
31735;DHT22;18313;48.518;9.124;2022-09-09T04:48:20;14.10;99.90
31735;DHT22;18313;48.518;9.124;2022-09-09T04:51:09;14.20;99.90
31735;DHT22;18313;48.518;9.124;2022-09-09T04:53:55;14.20;99.90
31735;DHT22;18313;48.518;9.124;2022-09-09T04:56:40;14.10;99.90
31735;DHT22;18313;48.518;9.124;2022-09-09T04:59:27;14.10;99.90
31735;DHT22;18313;48.518;9.124;2022-09-09T05:02:13;14.20;99.90
31735;DHT22;18313;48.518;9.124;2022-09-09T05:04:58;14.30;99.90
31735;DHT22;18313;48.518;9.124;2022-09-09T05:07:44;14.20;99.90
31735;DHT22;18313;48.518;9.124;2022-09-09T05:10:29;14.20;99.90
31735;DHT22;18313;48.518;9.124;2022-09-09T05:13:15;14.20;99.90
31735;DHT22;18313;48.518;9.124;2022-09-09T05:16:01;14.10;99.90
31735;DHT22;18313;48.518;9.124;2022-09-09T05:18:46;14.20;99.90
31735;DHT22;18313;48.518;9.124;2022-09-09T05:21:32;14.30;99.90
31735;DHT22;18313;48.518;9.124;2022-09-09T05:24:18;14.30;99.90
31735;DHT22;18313;48.518;9.124;2022-09-09T05:27:04;14.30;99.90
31735;DHT22;18313;48.518;9.124;2022-09-09T05:29:51;14.30;99.90
31735;DHT22;18313;48.518;9.124;2022-09-09T05:32:36;14.30;99.90
31735;DHT22;18313;48.518;9.124;2022-09-09T05:35:22;14.30;99.90
31735;DHT22;18313;48.518;9.124;2022-09-09T05:38:08;14.40;99.90
31735;DHT22;18313;48.518;9.124;2022-09-09T05:40:53;14.40;99.90
31735;DHT22;18313;48.518;9.124;2022-09-09T05:43:39;14.50;99.90
31735;DHT22;18313;48.518;9.124;2022-09-09T05:46:25;14.60;99.90
31735;DHT22;18313;48.518;9.124;2022-09-09T05:49:11;14.70;99.90
31735;DHT22;18313;48.518;9.124;2022-09-09T05:51:56;14.80;99.90
31735;DHT22;18313;48.518;9.124;2022-09-09T05:54:42;14.80;99.90
31735;DHT22;18313;48.518;9.124;2022-09-09T05:57:28;14.90;99.90
31735;DHT22;18313;48.518;9.124;2022-09-09T06:00:14;15.00;99.90
31735;DHT22;18313;48.518;9.124;2022-09-09T06:03:00;15.00;99.90
31735;DHT22;18313;48.518;9.124;2022-09-09T06:05:45;15.00;99.90
31735;DHT22;18313;48.518;9.124;2022-09-09T06:08:32;15.10;99.90
31735;DHT22;18313;48.518;9.124;2022-09-09T06:11:22;15.20;99.90
31735;DHT22;18313;48.518;9.124;2022-09-09T06:14:09;15.30;99.90
31735;DHT22;18313;48.518;9.124;2022-09-09T06:16:54;15.30;99.90
31735;DHT22;18313;48.518;9.124;2022-09-09T06:19:40;15.40;99.90
31735;DHT22;18313;48.518;9.124;2022-09-09T06:22:25;15.50;99.90
31735;DHT22;18313;48.518;9.124;2022-09-09T06:25:11;15.50;99.90
31735;DHT22;18313;48.518;9.124;2022-09-09T06:27:57;15.70;99.90
31735;DHT22;18313;48.518;9.124;2022-09-09T06:30:43;15.70;99.90
31735;DHT22;18313;48.518;9.124;2022-09-09T06:33:38;15.90;99.90
31735;DHT22;18313;48.518;9.124;2022-09-09T06:36:32;16.10;99.90
31735;DHT22;18313;48.518;9.124;2022-09-09T06:39:17;16.20;99.90
31735;DHT22;18313;48.518;9.124;2022-09-09T06:42:03;16.40;99.90
31735;DHT22;18313;48.518;9.124;2022-09-09T06:44:49;16.50;99.90
31735;DHT22;18313;48.518;9.124;2022-09-09T06:47:34;16.50;99.90
31735;DHT22;18313;48.518;9.124;2022-09-09T06:50:19;16.70;99.90
31735;DHT22;18313;48.518;9.124;2022-09-09T06:53:06;16.70;99.90
31735;DHT22;18313;48.518;9.124;2022-09-09T06:55:51;16.80;99.90
31735;DHT22;18313;48.518;9.124;2022-09-09T06:58:40;16.90;99.90
31735;DHT22;18313;48.518;9.124;2022-09-09T07:01:33;17.10;99.90
31735;DHT22;18313;48.518;9.124;2022-09-09T07:04:19;17.20;99.90
31735;DHT22;18313;48.518;9.124;2022-09-09T07:07:04;17.30;99.90
31735;DHT22;18313;48.518;9.124;2022-09-09T07:09:50;17.40;99.90
31735;DHT22;18313;48.518;9.124;2022-09-09T07:12:35;17.50;99.90
31735;DHT22;18313;48.518;9.124;2022-09-09T07:15:21;17.70;99.90
31735;DHT22;18313;48.518;9.124;2022-09-09T07:18:08;17.80;99.90
31735;DHT22;18313;48.518;9.124;2022-09-09T07:20:55;17.90;99.90
31735;DHT22;18313;48.518;9.124;2022-09-09T07:23:43;17.90;99.90
31735;DHT22;18313;48.518;9.124;2022-09-09T07:26:30;18.10;99.90
31735;DHT22;18313;48.518;9.124;2022-09-09T07:29:15;18.20;99.90
31735;DHT22;18313;48.518;9.124;2022-09-09T07:32:05;18.30;99.90
31735;DHT22;18313;48.518;9.124;2022-09-09T07:34:51;18.30;99.90
31735;DHT22;18313;48.518;9.124;2022-09-09T07:37:37;18.30;99.90
31735;DHT22;18313;48.518;9.124;2022-09-09T07:40:23;18.20;99.90
31735;DHT22;18313;48.518;9.124;2022-09-09T07:43:08;18.10;99.90
31735;DHT22;18313;48.518;9.124;2022-09-09T07:46:00;18.00;99.90
31735;DHT22;18313;48.518;9.124;2022-09-09T07:48:50;18.10;99.90
31735;DHT22;18313;48.518;9.124;2022-09-09T07:51:38;18.20;99.90
31735;DHT22;18313;48.518;9.124;2022-09-09T07:54:24;18.10;99.90
31735;DHT22;18313;48.518;9.124;2022-09-09T07:57:09;18.30;99.90
31735;DHT22;18313;48.518;9.124;2022-09-09T07:59:55;18.40;99.90
31735;DHT22;18313;48.518;9.124;2022-09-09T08:02:41;18.60;99.90
31735;DHT22;18313;48.518;9.124;2022-09-09T08:05:27;18.70;99.90
31735;DHT22;18313;48.518;9.124;2022-09-09T08:08:12;18.90;99.90
31735;DHT22;18313;48.518;9.124;2022-09-09T08:11:16;19.10;99.90
31735;DHT22;18313;48.518;9.124;2022-09-09T08:14:03;19.20;99.90
31735;DHT22;18313;48.518;9.124;2022-09-09T08:16:49;19.30;99.90
31735;DHT22;18313;48.518;9.124;2022-09-09T08:19:35;19.30;99.90
31735;DHT22;18313;48.518;9.124;2022-09-09T08:22:21;19.50;99.90
31735;DHT22;18313;48.518;9.124;2022-09-09T08:25:07;19.60;99.90
31735;DHT22;18313;48.518;9.124;2022-09-09T08:27:53;19.70;99.90
31735;DHT22;18313;48.518;9.124;2022-09-09T08:30:39;19.50;99.90
31735;DHT22;18313;48.518;9.124;2022-09-09T08:33:24;19.60;99.90
31735;DHT22;18313;48.518;9.124;2022-09-09T08:36:12;19.70;99.90
31735;DHT22;18313;48.518;9.124;2022-09-09T08:38:58;19.80;99.90
31735;DHT22;18313;48.518;9.124;2022-09-09T08:48:38;20.80;99.90
31735;DHT22;18313;48.518;9.124;2022-09-09T08:51:03;20.90;99.90
31735;DHT22;18313;48.518;9.124;2022-09-09T08:53:52;20.70;99.90
31735;DHT22;18313;48.518;9.124;2022-09-09T08:56:43;20.60;99.90
31735;DHT22;18313;48.518;9.124;2022-09-09T08:59:29;20.40;99.90
31735;DHT22;18313;48.518;9.124;2022-09-09T09:02:56;20.30;99.90
31735;DHT22;18313;48.518;9.124;2022-09-09T09:06:21;20.10;99.90
31735;DHT22;18313;48.518;9.124;2022-09-09T09:09:38;20.00;99.90
31735;DHT22;18313;48.518;9.124;2022-09-09T09:12:40;20.10;99.90
31735;DHT22;18313;48.518;9.124;2022-09-09T09:15:31;20.50;99.90
31735;DHT22;18313;48.518;9.124;2022-09-09T09:18:21;20.80;99.90
31735;DHT22;18313;48.518;9.124;2022-09-09T09:21:16;21.10;99.90
31735;DHT22;18313;48.518;9.124;2022-09-09T09:24:34;21.50;99.90
31735;DHT22;18313;48.518;9.124;2022-09-09T09:27:31;21.70;99.90
31735;DHT22;18313;48.518;9.124;2022-09-09T09:30:22;21.90;99.90
31735;DHT22;18313;48.518;9.124;2022-09-09T09:36:13;22.40;99.40
31735;DHT22;18313;48.518;9.124;2022-09-09T09:39:02;22.60;99.40
31735;DHT22;18313;48.518;9.124;2022-09-09T09:42:12;22.90;99.00
31735;DHT22;18313;48.518;9.124;2022-09-09T09:48:19;23.40;99.10
31735;DHT22;18313;48.518;9.124;2022-09-09T09:51:09;23.70;97.60
31735;DHT22;18313;48.518;9.124;2022-09-09T09:54:28;23.80;97.50
31735;DHT22;18313;48.518;9.124;2022-09-09T09:57:16;23.70;96.70
31735;DHT22;18313;48.518;9.124;2022-09-09T10:02:57;23.50;97.00
31735;DHT22;18313;48.518;9.124;2022-09-09T10:05:47;23.60;96.80
31735;DHT22;18313;48.518;9.124;2022-09-09T10:08:43;23.50;96.00
31735;DHT22;18313;48.518;9.124;2022-09-09T10:11:42;23.40;96.50
31735;DHT22;18313;48.518;9.124;2022-09-09T10:14:36;23.20;96.00
31735;DHT22;18313;48.518;9.124;2022-09-09T10:17:40;22.90;96.70
31735;DHT22;18313;48.518;9.124;2022-09-09T10:24:16;22.60;97.70
31735;DHT22;18313;48.518;9.124;2022-09-09T10:27:20;22.90;97.50
31735;DHT22;18313;48.518;9.124;2022-09-09T10:30:19;23.30;96.30
31735;DHT22;18313;48.518;9.124;2022-09-09T10:33:10;23.40;94.90
31735;DHT22;18313;48.518;9.124;2022-09-09T10:38:52;23.80;94.00
31735;DHT22;18313;48.518;9.124;2022-09-09T10:42:01;23.70;93.40
31735;DHT22;18313;48.518;9.124;2022-09-09T10:44:59;23.40;94.80
31735;DHT22;18313;48.518;9.124;2022-09-09T10:48:16;23.50;94.90
31735;DHT22;18313;48.518;9.124;2022-09-09T10:57:37;23.90;91.80
31735;DHT22;18313;48.518;9.124;2022-09-09T11:00:39;23.90;92.60
31735;DHT22;18313;48.518;9.124;2022-09-09T11:03:27;24.00;92.30
31735;DHT22;18313;48.518;9.124;2022-09-09T11:06:24;24.30;92.20
31735;DHT22;18313;48.518;9.124;2022-09-09T11:09:20;24.60;90.80
31735;DHT22;18313;48.518;9.124;2022-09-09T11:12:11;24.60;93.00
31735;DHT22;18313;48.518;9.124;2022-09-09T11:15:04;24.80;91.80
31735;DHT22;18313;48.518;9.124;2022-09-09T11:17:55;24.80;91.80
31735;DHT22;18313;48.518;9.124;2022-09-09T11:20:42;24.90;92.10
31735;DHT22;18313;48.518;9.124;2022-09-09T11:23:45;25.50;90.70
31735;DHT22;18313;48.518;9.124;2022-09-09T11:26:38;25.00;91.50
31735;DHT22;18313;48.518;9.124;2022-09-09T11:29:44;24.30;92.60
31735;DHT22;18313;48.518;9.124;2022-09-09T11:38:32;22.90;93.10
31735;DHT22;18313;48.518;9.124;2022-09-09T11:41:21;22.70;93.70
31735;DHT22;18313;48.518;9.124;2022-09-09T11:44:17;22.60;93.90
31735;DHT22;18313;48.518;9.124;2022-09-09T11:47:17;23.00;93.40
31735;DHT22;18313;48.518;9.124;2022-09-09T11:50:27;23.40;92.30
31735;DHT22;18313;48.518;9.124;2022-09-09T11:56:04;23.70;90.20
31735;DHT22;18313;48.518;9.124;2022-09-09T12:02:12;23.90;90.00
31735;DHT22;18313;48.518;9.124;2022-09-09T12:05:11;24.00;89.30
31735;DHT22;18313;48.518;9.124;2022-09-09T12:07:58;24.20;90.30
31735;DHT22;18313;48.518;9.124;2022-09-09T12:10:55;24.30;88.60
31735;DHT22;18313;48.518;9.124;2022-09-09T12:13:52;24.40;90.00
31735;DHT22;18313;48.518;9.124;2022-09-09T12:16:38;24.50;89.70
31735;DHT22;18313;48.518;9.124;2022-09-09T12:19:24;24.70;86.90
31735;DHT22;18313;48.518;9.124;2022-09-09T12:22:24;24.40;88.00
31735;DHT22;18313;48.518;9.124;2022-09-09T12:25:56;24.20;89.00
31735;DHT22;18313;48.518;9.124;2022-09-09T12:32:11;24.20;90.20
31735;DHT22;18313;48.518;9.124;2022-09-09T12:35:09;24.10;90.40
31735;DHT22;18313;48.518;9.124;2022-09-09T12:37:59;24.00;90.10
31735;DHT22;18313;48.518;9.124;2022-09-09T12:40:56;24.00;90.10
31735;DHT22;18313;48.518;9.124;2022-09-09T12:43:42;23.90;91.30
31735;DHT22;18313;48.518;9.124;2022-09-09T12:46:39;24.00;90.50
31735;DHT22;18313;48.518;9.124;2022-09-09T12:49:37;23.50;90.80
31735;DHT22;18313;48.518;9.124;2022-09-09T12:52:42;23.30;91.20
31735;DHT22;18313;48.518;9.124;2022-09-09T12:55:31;23.20;90.90
31735;DHT22;18313;48.518;9.124;2022-09-09T12:58:19;23.10;91.50
31735;DHT22;18313;48.518;9.124;2022-09-09T13:01:06;22.90;91.10
31735;DHT22;18313;48.518;9.124;2022-09-09T13:03:51;23.00;91.70
31735;DHT22;18313;48.518;9.124;2022-09-09T13:06:37;23.10;91.80
31735;DHT22;18313;48.518;9.124;2022-09-09T13:09:23;23.60;90.30
31735;DHT22;18313;48.518;9.124;2022-09-09T13:12:14;23.80;89.10
31735;DHT22;18313;48.518;9.124;2022-09-09T13:15:00;24.00;89.20
31735;DHT22;18313;48.518;9.124;2022-09-09T13:17:55;23.80;90.20
31735;DHT22;18313;48.518;9.124;2022-09-09T13:20:45;23.80;90.20
31735;DHT22;18313;48.518;9.124;2022-09-09T13:23:33;23.70;90.10
31735;DHT22;18313;48.518;9.124;2022-09-09T13:26:25;23.70;90.70
31735;DHT22;18313;48.518;9.124;2022-09-09T13:29:18;23.70;90.60
31735;DHT22;18313;48.518;9.124;2022-09-09T13:32:16;23.60;91.00
31735;DHT22;18313;48.518;9.124;2022-09-09T13:35:02;23.60;90.80
31735;DHT22;18313;48.518;9.124;2022-09-09T13:37:48;23.40;90.50
31735;DHT22;18313;48.518;9.124;2022-09-09T13:40:33;23.20;90.60
31735;DHT22;18313;48.518;9.124;2022-09-09T13:43:22;23.10;90.90
31735;DHT22;18313;48.518;9.124;2022-09-09T13:46:32;23.00;91.80
31735;DHT22;18313;48.518;9.124;2022-09-09T13:49:23;23.00;91.50
31735;DHT22;18313;48.518;9.124;2022-09-09T13:52:09;23.30;91.00
31735;DHT22;18313;48.518;9.124;2022-09-09T13:54:55;23.40;90.40
31735;DHT22;18313;48.518;9.124;2022-09-09T14:00:40;23.80;89.30
31735;DHT22;18313;48.518;9.124;2022-09-09T14:03:26;23.80;90.10
31735;DHT22;18313;48.518;9.124;2022-09-09T14:06:11;23.90;90.30
31735;DHT22;18313;48.518;9.124;2022-09-09T14:08:57;24.00;88.20
31735;DHT22;18313;48.518;9.124;2022-09-09T14:11:43;24.00;87.60
31735;DHT22;18313;48.518;9.124;2022-09-09T14:14:29;24.00;87.30
31735;DHT22;18313;48.518;9.124;2022-09-09T14:17:14;23.90;88.20
31735;DHT22;18313;48.518;9.124;2022-09-09T14:20:00;23.80;89.20
31735;DHT22;18313;48.518;9.124;2022-09-09T14:22:46;23.80;88.50
31735;DHT22;18313;48.518;9.124;2022-09-09T14:25:31;23.70;88.90
31735;DHT22;18313;48.518;9.124;2022-09-09T14:28:17;23.60;89.60
31735;DHT22;18313;48.518;9.124;2022-09-09T14:31:10;23.70;89.40
31735;DHT22;18313;48.518;9.124;2022-09-09T14:33:55;23.80;86.30
31735;DHT22;18313;48.518;9.124;2022-09-09T14:36:41;23.90;87.80
31735;DHT22;18313;48.518;9.124;2022-09-09T14:39:27;24.10;90.20
31735;DHT22;18313;48.518;9.124;2022-09-09T14:42:13;24.30;87.60
31735;DHT22;18313;48.518;9.124;2022-09-09T14:44:59;24.50;86.20
31735;DHT22;18313;48.518;9.124;2022-09-09T14:47:44;24.40;86.20
31735;DHT22;18313;48.518;9.124;2022-09-09T14:50:30;24.10;86.00
31735;DHT22;18313;48.518;9.124;2022-09-09T14:53:16;23.80;87.30
31735;DHT22;18313;48.518;9.124;2022-09-09T14:56:14;23.80;87.90
31735;DHT22;18313;48.518;9.124;2022-09-09T14:58:59;23.60;87.80
31735;DHT22;18313;48.518;9.124;2022-09-09T15:01:48;23.20;87.30
31735;DHT22;18313;48.518;9.124;2022-09-09T15:04:33;23.00;88.40
31735;DHT22;18313;48.518;9.124;2022-09-09T15:07:18;22.90;89.50
31735;DHT22;18313;48.518;9.124;2022-09-09T15:10:05;22.90;88.70
31735;DHT22;18313;48.518;9.124;2022-09-09T15:12:50;22.70;90.00
31735;DHT22;18313;48.518;9.124;2022-09-09T15:15:36;22.80;90.30
31735;DHT22;18313;48.518;9.124;2022-09-09T15:18:21;22.70;88.60
31735;DHT22;18313;48.518;9.124;2022-09-09T15:21:06;22.70;87.60
31735;DHT22;18313;48.518;9.124;2022-09-09T15:23:52;22.60;88.10
31735;DHT22;18313;48.518;9.124;2022-09-09T15:26:38;22.50;89.10
31735;DHT22;18313;48.518;9.124;2022-09-09T15:29:24;22.50;88.80
31735;DHT22;18313;48.518;9.124;2022-09-09T15:32:10;22.40;89.50
31735;DHT22;18313;48.518;9.124;2022-09-09T15:34:55;22.40;89.40
31735;DHT22;18313;48.518;9.124;2022-09-09T15:37:41;22.40;89.60
31735;DHT22;18313;48.518;9.124;2022-09-09T15:40:27;22.30;89.50
31735;DHT22;18313;48.518;9.124;2022-09-09T15:43:12;22.20;90.20
31735;DHT22;18313;48.518;9.124;2022-09-09T15:46:21;22.00;89.50
31735;DHT22;18313;48.518;9.124;2022-09-09T15:49:12;21.80;90.00
31735;DHT22;18313;48.518;9.124;2022-09-09T15:51:59;21.90;90.40
31735;DHT22;18313;48.518;9.124;2022-09-09T15:54:47;21.80;89.60
31735;DHT22;18313;48.518;9.124;2022-09-09T15:57:32;21.80;89.10
31735;DHT22;18313;48.518;9.124;2022-09-09T16:00:18;21.60;89.50
31735;DHT22;18313;48.518;9.124;2022-09-09T16:03:03;21.60;90.00
31735;DHT22;18313;48.518;9.124;2022-09-09T16:05:51;21.60;87.60
31735;DHT22;18313;48.518;9.124;2022-09-09T16:08:39;21.70;89.00
31735;DHT22;18313;48.518;9.124;2022-09-09T16:11:33;21.70;88.10
31735;DHT22;18313;48.518;9.124;2022-09-09T16:14:20;21.60;88.60
31735;DHT22;18313;48.518;9.124;2022-09-09T16:17:06;21.40;88.00
31735;DHT22;18313;48.518;9.124;2022-09-09T16:19:52;21.40;89.40
31735;DHT22;18313;48.518;9.124;2022-09-09T16:22:38;21.40;88.80
31735;DHT22;18313;48.518;9.124;2022-09-09T16:25:24;21.60;89.00
31735;DHT22;18313;48.518;9.124;2022-09-09T16:28:09;21.50;89.40
31735;DHT22;18313;48.518;9.124;2022-09-09T16:30:54;21.40;88.80
31735;DHT22;18313;48.518;9.124;2022-09-09T16:33:40;21.30;89.90
31735;DHT22;18313;48.518;9.124;2022-09-09T16:36:28;21.10;90.20
31735;DHT22;18313;48.518;9.124;2022-09-09T16:39:20;20.80;90.60
31735;DHT22;18313;48.518;9.124;2022-09-09T16:42:05;20.70;91.00
31735;DHT22;18313;48.518;9.124;2022-09-09T16:44:51;20.70;91.40
31735;DHT22;18313;48.518;9.124;2022-09-09T16:47:36;20.60;91.30
31735;DHT22;18313;48.518;9.124;2022-09-09T16:50:22;20.60;91.60
31735;DHT22;18313;48.518;9.124;2022-09-09T16:53:07;20.50;91.60
31735;DHT22;18313;48.518;9.124;2022-09-09T16:55:53;20.40;91.80
31735;DHT22;18313;48.518;9.124;2022-09-09T16:58:39;20.30;92.10
31735;DHT22;18313;48.518;9.124;2022-09-09T17:01:26;20.20;92.40
31735;DHT22;18313;48.518;9.124;2022-09-09T17:04:18;20.20;92.70
31735;DHT22;18313;48.518;9.124;2022-09-09T17:07:05;20.20;92.70
31735;DHT22;18313;48.518;9.124;2022-09-09T17:09:51;20.20;92.50
31735;DHT22;18313;48.518;9.124;2022-09-09T17:12:39;20.20;92.70
31735;DHT22;18313;48.518;9.124;2022-09-09T17:15:26;20.10;92.90
31735;DHT22;18313;48.518;9.124;2022-09-09T17:18:12;20.10;93.00
31735;DHT22;18313;48.518;9.124;2022-09-09T17:21:05;20.10;93.00
31735;DHT22;18313;48.518;9.124;2022-09-09T17:23:52;20.00;93.20
31735;DHT22;18313;48.518;9.124;2022-09-09T17:26:38;19.90;93.40
31735;DHT22;18313;48.518;9.124;2022-09-09T17:29:23;19.80;93.70
31735;DHT22;18313;48.518;9.124;2022-09-09T17:32:10;19.60;94.10
31735;DHT22;18313;48.518;9.124;2022-09-09T17:34:55;19.60;94.10
31735;DHT22;18313;48.518;9.124;2022-09-09T17:37:40;19.50;94.50
31735;DHT22;18313;48.518;9.124;2022-09-09T17:40:27;19.30;94.40
31735;DHT22;18313;48.518;9.124;2022-09-09T17:43:12;19.20;94.90
31735;DHT22;18313;48.518;9.124;2022-09-09T17:48:55;19.10;95.20
31735;DHT22;18313;48.518;9.124;2022-09-09T17:51:42;19.00;95.20
31735;DHT22;18313;48.518;9.124;2022-09-09T17:54:27;18.90;95.60
31735;DHT22;18313;48.518;9.124;2022-09-09T17:57:13;18.80;96.10
31735;DHT22;18313;48.518;9.124;2022-09-09T17:59:58;18.80;96.10
31735;DHT22;18313;48.518;9.124;2022-09-09T18:02:44;18.70;96.20
31735;DHT22;18313;48.518;9.124;2022-09-09T18:05:29;18.50;96.20
31735;DHT22;18313;48.518;9.124;2022-09-09T18:08:15;18.40;96.20
31735;DHT22;18313;48.518;9.124;2022-09-09T18:11:02;18.40;96.00
31735;DHT22;18313;48.518;9.124;2022-09-09T18:14:00;18.30;95.80
31735;DHT22;18313;48.518;9.124;2022-09-09T18:16:46;18.30;96.00
31735;DHT22;18313;48.518;9.124;2022-09-09T18:19:32;18.40;96.00
31735;DHT22;18313;48.518;9.124;2022-09-09T18:22:17;18.30;96.30
31735;DHT22;18313;48.518;9.124;2022-09-09T18:25:04;18.30;96.20
31735;DHT22;18313;48.518;9.124;2022-09-09T18:27:49;18.20;96.50
31735;DHT22;18313;48.518;9.124;2022-09-09T18:30:40;18.20;96.50
31735;DHT22;18313;48.518;9.124;2022-09-09T18:33:26;18.20;96.70
31735;DHT22;18313;48.518;9.124;2022-09-09T18:36:14;18.10;96.80
31735;DHT22;18313;48.518;9.124;2022-09-09T18:39:02;18.10;96.80
31735;DHT22;18313;48.518;9.124;2022-09-09T18:41:51;18.00;97.00
31735;DHT22;18313;48.518;9.124;2022-09-09T18:44:37;17.90;96.80
31735;DHT22;18313;48.518;9.124;2022-09-09T18:47:22;17.90;96.80
31735;DHT22;18313;48.518;9.124;2022-09-09T18:50:08;17.90;96.80
31735;DHT22;18313;48.518;9.124;2022-09-09T18:52:55;17.80;96.80
31735;DHT22;18313;48.518;9.124;2022-09-09T18:55:40;17.80;96.70
31735;DHT22;18313;48.518;9.124;2022-09-09T18:58:27;17.80;96.90
31735;DHT22;18313;48.518;9.124;2022-09-09T19:01:14;17.70;97.10
31735;DHT22;18313;48.518;9.124;2022-09-09T19:04:01;17.70;97.20
31735;DHT22;18313;48.518;9.124;2022-09-09T19:06:47;17.70;97.30
31735;DHT22;18313;48.518;9.124;2022-09-09T19:09:33;17.60;97.40
31735;DHT22;18313;48.518;9.124;2022-09-09T19:12:19;17.60;97.70
31735;DHT22;18313;48.518;9.124;2022-09-09T19:15:05;17.50;97.50
31735;DHT22;18313;48.518;9.124;2022-09-09T19:17:50;17.50;97.60
31735;DHT22;18313;48.518;9.124;2022-09-09T19:20:36;17.50;97.60